createdAt,value
2019-06-15T00:02:37.586Z,93.00
2019-06-15T00:05:04.483Z,93.10
2019-06-15T00:07:31.473Z,92.90
2019-06-15T00:10:17.980Z,92.80
2019-06-15T00:12:44.968Z,93.00
2019-06-15T00:15:11.861Z,92.80
2019-06-15T00:17:40.201Z,92.90
2019-06-15T00:20:07.177Z,93.10
2019-06-15T00:22:34.624Z,92.80
2019-06-15T00:25:02.108Z,93.20
2019-06-15T00:27:49.025Z,92.80
2019-06-15T00:30:16.577Z,93.00
2019-06-15T00:33:03.631Z,92.90
2019-06-15T00:35:30.943Z,92.90
2019-06-15T00:38:17.534Z,92.80
2019-06-15T00:40:44.551Z,92.80
2019-06-15T00:43:11.909Z,92.70
2019-06-15T00:45:39.429Z,92.80
2019-06-15T00:48:06.433Z,92.70
2019-06-15T00:50:33.319Z,92.80
2019-06-15T00:53:00.218Z,92.80
2019-06-15T00:55:27.222Z,92.90
2019-06-15T00:57:54.204Z,92.90
2019-06-15T01:00:21.092Z,92.80
2019-06-15T01:02:48.006Z,93.40
2019-06-15T01:05:15.382Z,93.20
2019-06-15T01:07:42.609Z,93.50
2019-06-15T01:10:11.051Z,93.40
2019-06-15T01:12:37.938Z,94.10
2019-06-15T01:15:05.078Z,94.70
2019-06-15T01:17:32.096Z,94.50
2019-06-15T01:19:58.991Z,94.80
2019-06-15T01:22:25.887Z,95.60
2019-06-15T01:25:05.145Z,95.10
2019-06-15T01:27:22.951Z,95.40
2019-06-15T01:29:49.931Z,95.60
2019-06-15T01:32:16.888Z,95.50
2019-06-15T01:34:45.084Z,96.00
2019-06-15T01:37:12.574Z,95.80
2019-06-15T01:39:39.519Z,96.00
2019-06-15T01:42:06.414Z,95.90
2019-06-15T01:44:33.434Z,96.20
2019-06-15T01:47:00.421Z,95.90
2019-06-15T01:49:27.333Z,96.30
2019-06-15T01:51:54.483Z,96.20
2019-06-15T01:54:21.516Z,96.10
2019-06-15T01:56:48.594Z,96.70
2019-06-15T01:59:15.530Z,96.50
2019-06-15T02:01:42.709Z,96.60
2019-06-15T02:04:10.216Z,96.20
2019-06-15T02:06:37.275Z,96.40
2019-06-15T02:09:06.319Z,96.70
2019-06-15T02:11:52.841Z,96.70
2019-06-15T02:17:04.683Z,96.70
2019-06-15T02:19:31.982Z,97.20
2019-06-15T02:21:59.554Z,97.00
2019-06-15T02:24:26.464Z,97.20
2019-06-15T02:26:53.322Z,97.00
2019-06-15T02:29:20.202Z,97.00
2019-06-15T02:31:47.209Z,97.10
2019-06-15T02:34:14.202Z,97.00
2019-06-15T02:36:41.107Z,96.90
2019-06-15T02:39:08.011Z,97.50
2019-06-15T02:41:34.896Z,97.40
2019-06-15T02:44:02.160Z,97.10
2019-06-15T02:46:29.880Z,97.30
2019-06-15T02:49:16.379Z,97.20
2019-06-15T02:51:43.752Z,97.10
2019-06-15T02:54:11.286Z,97.20
2019-06-15T02:56:38.495Z,97.40
2019-06-15T02:59:25.462Z,97.80
2019-06-15T03:01:52.858Z,97.40
2019-06-15T03:04:20.932Z,97.40
2019-06-15T03:06:47.843Z,97.00
2019-06-15T03:09:14.762Z,97.70
2019-06-15T03:11:41.708Z,97.60
2019-06-15T03:14:08.614Z,98.10
2019-06-15T03:16:55.107Z,98.40
2019-06-15T03:19:22.062Z,97.80
2019-06-15T03:21:49.018Z,97.60
2019-06-15T03:24:16.031Z,97.90
2019-06-15T03:26:42.915Z,98.00
2019-06-15T03:29:10.302Z,97.70
2019-06-15T03:31:37.580Z,97.50
2019-06-15T03:34:04.618Z,97.70
2019-06-15T03:36:31.631Z,97.70
2019-06-15T03:39:18.708Z,97.60
2019-06-15T03:41:46.118Z,98.30
2019-06-15T03:44:13.012Z,98.50
2019-06-15T03:46:39.914Z,98.50
2019-06-15T03:49:06.828Z,98.20
2019-06-15T03:51:33.737Z,98.30
2019-06-15T03:54:00.727Z,98.50
2019-06-15T03:56:27.721Z,98.60
2019-06-15T03:58:54.607Z,98.70
2019-06-15T04:01:31.820Z,98.30
2019-06-15T04:03:59.184Z,98.10
2019-06-15T04:06:26.531Z,99.10
2019-06-15T04:08:53.853Z,98.60
2019-06-15T04:11:20.731Z,98.90
2019-06-15T04:13:47.635Z,99.40
2019-06-15T04:16:14.666Z,98.80
2019-06-15T04:19:01.347Z,98.90
2019-06-15T04:21:28.226Z,99.10
2019-06-15T04:23:55.105Z,99.00
2019-06-15T04:26:35.374Z,99.40
2019-06-15T04:28:50.835Z,99.20
2019-06-15T04:31:18.244Z,99.00
2019-06-15T04:33:45.538Z,99.40
2019-06-15T04:36:12.612Z,98.90
2019-06-15T04:38:39.493Z,99.30
2019-06-15T04:41:26.468Z,99.30
2019-06-15T04:43:53.702Z,98.80
2019-06-15T04:46:20.636Z,99.20
2019-06-15T04:48:47.539Z,99.10
2019-06-15T04:51:14.571Z,99.50
2019-06-15T04:53:41.634Z,99.20
2019-06-15T04:56:08.542Z,99.30
2019-06-15T04:58:35.458Z,99.70
2019-06-15T05:01:02.414Z,99.30
2019-06-15T05:03:29.403Z,99.40
2019-06-15T05:05:56.355Z,99.60
2019-06-15T05:08:23.252Z,99.60
2019-06-15T05:10:50.827Z,99.60
2019-06-15T05:13:18.362Z,99.80
2019-06-15T05:15:45.518Z,99.30
2019-06-15T05:18:12.417Z,99.30
2019-06-15T05:20:39.439Z,99.90
2019-06-15T05:23:06.341Z,99.30
2019-06-15T05:25:33.331Z,99.60
2019-06-15T05:28:00.285Z,99.30
2019-06-15T05:30:27.323Z,99.40
2019-06-15T05:32:54.303Z,99.60
2019-06-15T05:35:23.569Z,99.90
2019-06-15T05:37:50.550Z,99.90
2019-06-15T05:40:17.520Z,99.90
2019-06-15T05:43:04.495Z,99.90
2019-06-15T05:45:32.008Z,99.90
2019-06-15T05:47:59.598Z,99.90
2019-06-15T05:50:26.519Z,99.90
2019-06-15T05:52:53.416Z,99.90
2019-06-15T05:55:20.735Z,99.90
2019-06-15T05:57:47.660Z,99.80
2019-06-15T06:00:14.702Z,99.90
2019-06-15T06:02:41.691Z,99.70
2019-06-15T06:05:08.615Z,99.90
2019-06-15T06:07:35.565Z,99.90
2019-06-15T06:10:02.862Z,99.90
2019-06-15T06:12:30.453Z,99.90
2019-06-15T06:14:57.415Z,99.90
2019-06-15T06:17:24.435Z,99.90
2019-06-15T06:19:51.522Z,99.90
2019-06-15T06:22:19.048Z,99.90
2019-06-15T06:24:46.684Z,99.90
2019-06-15T06:27:13.903Z,99.90
2019-06-15T06:29:40.931Z,99.90
2019-06-15T06:32:08.020Z,99.90
2019-06-15T06:34:34.944Z,99.90
2019-06-15T06:37:01.976Z,99.90
2019-06-15T06:39:30.904Z,99.90
2019-06-15T06:41:58.536Z,99.90
2019-06-15T06:44:25.540Z,99.90
2019-06-15T06:46:52.428Z,99.90
2019-06-15T06:49:19.367Z,99.90
2019-06-15T06:51:46.255Z,99.90
2019-06-15T06:54:13.232Z,99.90
2019-06-15T06:56:40.142Z,99.90
2019-06-15T06:59:26.821Z,99.90
2019-06-15T07:01:53.809Z,99.90
2019-06-15T07:04:20.678Z,99.90
2019-06-15T07:06:47.855Z,99.90
2019-06-15T07:09:14.744Z,99.90
2019-06-15T07:11:41.649Z,99.90
2019-06-15T07:14:28.303Z,99.90
2019-06-15T07:16:55.286Z,99.90
2019-06-15T07:19:41.927Z,99.90
2019-06-15T07:22:29.027Z,99.80
2019-06-15T07:24:56.311Z,99.90
2019-06-15T07:27:23.492Z,99.90
2019-06-15T07:29:50.405Z,99.90
2019-06-15T07:32:17.282Z,99.90
2019-06-15T07:34:44.180Z,99.90
2019-06-15T07:37:11.107Z,99.90
2019-06-15T07:39:57.634Z,99.90
2019-06-15T07:42:24.538Z,99.90
2019-06-15T07:44:51.688Z,99.90
2019-06-15T07:47:18.575Z,99.90
2019-06-15T07:49:45.475Z,99.90
2019-06-15T07:52:12.365Z,99.90
2019-06-15T07:54:39.316Z,99.90
2019-06-15T07:57:06.297Z,99.90
2019-06-15T07:59:33.205Z,99.90
2019-06-15T08:02:00.087Z,99.80
2019-06-15T08:04:27.548Z,99.90
2019-06-15T08:06:55.018Z,99.90
2019-06-15T08:09:22.492Z,99.90
2019-06-15T08:11:49.473Z,99.90
2019-06-15T08:14:16.443Z,99.90
2019-06-15T08:16:43.435Z,99.90
2019-06-15T08:19:10.361Z,99.90
2019-06-15T08:21:37.270Z,99.90
2019-06-15T08:24:04.966Z,99.90
2019-06-15T08:26:32.820Z,99.90
2019-06-15T08:29:00.348Z,99.90
2019-06-15T08:31:27.556Z,99.90
2019-06-15T08:33:54.468Z,99.90
2019-06-15T08:36:21.351Z,99.90
2019-06-15T08:39:08.186Z,99.90
2019-06-15T08:41:35.367Z,99.90
2019-06-15T08:44:02.292Z,99.90
2019-06-15T08:46:49.201Z,99.90
2019-06-15T08:49:16.662Z,99.90
2019-06-15T08:51:43.602Z,99.90
2019-06-15T08:54:10.598Z,99.90
2019-06-15T08:56:37.836Z,99.90
2019-06-15T08:59:05.019Z,99.90
2019-06-15T09:01:32.049Z,99.90
2019-06-15T09:03:58.955Z,99.90
2019-06-15T09:06:25.901Z,99.90
2019-06-15T09:08:52.980Z,99.90
2019-06-15T09:11:19.898Z,99.90
2019-06-15T09:13:46.778Z,99.90
2019-06-15T09:16:13.715Z,99.90
2019-06-15T09:18:40.598Z,99.90
2019-06-15T09:21:27.107Z,99.90
2019-06-15T09:24:13.954Z,99.90
2019-06-15T09:26:40.975Z,99.90
2019-06-15T09:29:11.515Z,99.90
2019-06-15T09:31:36.672Z,99.90
2019-06-15T09:34:18.035Z,99.90
2019-06-15T09:36:32.968Z,99.90
2019-06-15T09:38:59.900Z,99.90
2019-06-15T09:41:28.166Z,99.90
2019-06-15T09:43:55.166Z,99.90
2019-06-15T09:46:22.162Z,99.90
2019-06-15T09:49:08.671Z,99.90
2019-06-15T09:51:35.675Z,99.90
2019-06-15T09:54:22.330Z,99.90
2019-06-15T09:56:49.198Z,99.90
2019-06-15T09:59:25.555Z,99.90
2019-06-15T10:01:44.897Z,99.90
2019-06-15T10:04:12.412Z,99.90
2019-06-15T10:06:39.767Z,99.90
2019-06-15T10:09:06.862Z,99.90
2019-06-15T10:11:33.771Z,99.90
2019-06-15T10:14:00.684Z,99.90
2019-06-15T10:16:27.578Z,99.90
2019-06-15T10:18:54.539Z,99.90
2019-06-15T10:21:21.540Z,99.90
2019-06-15T10:23:48.425Z,99.90
2019-06-15T10:26:15.328Z,99.90
2019-06-15T10:29:01.952Z,99.90
2019-06-15T10:31:28.906Z,99.90
2019-06-15T10:33:55.883Z,99.90
2019-06-15T10:36:22.770Z,99.90
2019-06-15T10:38:49.673Z,99.90
2019-06-15T10:41:16.664Z,99.90
2019-06-15T10:43:43.764Z,99.90
2019-06-15T10:46:10.787Z,99.90
2019-06-15T10:48:38.088Z,99.90
2019-06-15T10:51:05.678Z,99.90
2019-06-15T10:53:52.171Z,99.90
2019-06-15T10:56:19.649Z,99.90
2019-06-15T10:58:47.131Z,99.90
2019-06-15T11:01:14.618Z,99.90
2019-06-15T11:03:41.665Z,99.90
2019-06-15T11:06:08.606Z,99.90
2019-06-15T11:08:35.542Z,99.90
2019-06-15T11:11:34.034Z,99.90
2019-06-15T11:14:21.162Z,99.90
2019-06-15T11:16:48.611Z,99.70
2019-06-15T11:19:15.499Z,99.70
2019-06-15T11:21:42.395Z,99.80
2019-06-15T11:24:09.384Z,99.80
2019-06-15T11:26:36.319Z,99.80
2019-06-15T11:29:03.298Z,99.70
2019-06-15T11:31:30.395Z,99.60
2019-06-15T11:33:57.303Z,99.60
2019-06-15T11:36:24.201Z,99.50
2019-06-15T11:38:51.449Z,99.40
2019-06-15T11:41:18.839Z,99.40
2019-06-15T11:43:45.841Z,99.50
2019-06-15T11:46:12.739Z,99.50
2019-06-15T11:48:39.651Z,99.50
2019-06-15T11:51:06.556Z,99.50
2019-06-15T11:53:33.472Z,99.50
2019-06-15T11:56:00.586Z,99.80
2019-06-15T11:58:27.567Z,99.60
2019-06-15T12:01:07.830Z,99.90
2019-06-15T12:03:35.031Z,99.60
2019-06-15T12:06:02.026Z,99.50
2019-06-15T12:08:29.020Z,99.50
2019-06-15T12:10:55.902Z,99.70
2019-06-15T12:13:22.774Z,99.60
2019-06-15T12:15:49.675Z,99.50
2019-06-15T12:18:16.580Z,99.50
2019-06-15T12:20:43.564Z,99.60
2019-06-15T12:23:10.492Z,99.60
2019-06-15T12:25:37.872Z,99.50
2019-06-15T12:28:05.362Z,99.60
2019-06-15T12:30:51.892Z,99.50
2019-06-15T12:33:18.823Z,99.50
2019-06-15T12:36:18.347Z,99.50
2019-06-15T12:38:35.518Z,99.60
2019-06-15T12:41:02.407Z,99.40
2019-06-15T12:43:29.349Z,99.30
2019-06-15T12:45:57.919Z,98.90
2019-06-15T12:48:25.028Z,99.20
2019-06-15T12:50:51.939Z,99.30
2019-06-15T12:53:19.206Z,99.20
2019-06-15T12:55:46.460Z,99.20
2019-06-15T12:58:13.950Z,99.20
2019-06-15T13:00:40.919Z,99.20
2019-06-15T13:03:07.800Z,99.20
2019-06-15T13:05:34.995Z,99.30
2019-06-15T13:08:02.039Z,99.10
2019-06-15T13:10:28.931Z,99.10
2019-06-15T13:12:55.830Z,99.10
2019-06-15T13:15:22.739Z,99.30
2019-06-15T13:17:50.543Z,99.60
2019-06-15T13:20:37.364Z,98.60
2019-06-15T13:23:04.365Z,99.00
2019-06-15T13:25:31.245Z,99.10
2019-06-15T13:27:58.667Z,98.90
2019-06-15T13:30:26.155Z,98.80
2019-06-15T13:32:53.138Z,98.20
2019-06-15T13:35:20.042Z,98.50
2019-06-15T13:37:46.936Z,98.70
2019-06-15T13:40:14.050Z,98.80
2019-06-15T13:42:41.060Z,98.50
2019-06-15T13:45:08.907Z,98.20
2019-06-15T13:47:36.370Z,97.90
2019-06-15T13:50:03.974Z,98.20
2019-06-15T13:52:31.278Z,98.00
2019-06-15T13:54:58.242Z,98.00
2019-06-15T13:57:25.324Z,98.10
2019-06-15T14:00:12.323Z,97.80
2019-06-15T14:02:39.456Z,97.60
2019-06-15T14:05:06.323Z,97.60
2019-06-15T14:07:33.214Z,97.60
2019-06-15T14:10:20.367Z,97.90
2019-06-15T14:12:47.750Z,98.10
2019-06-15T14:15:14.651Z,98.20
2019-06-15T14:17:41.559Z,98.20
2019-06-15T14:20:08.442Z,98.00
2019-06-15T14:22:35.311Z,97.60
2019-06-15T14:25:02.290Z,97.20
2019-06-15T14:27:48.923Z,96.70
2019-06-15T14:30:15.978Z,96.90
2019-06-15T14:32:42.904Z,97.50
2019-06-15T14:35:09.943Z,97.20
2019-06-15T14:37:36.849Z,96.90
2019-06-15T14:40:04.018Z,95.90
2019-06-15T14:42:31.006Z,95.30
2019-06-15T14:44:57.896Z,95.30
2019-06-15T14:47:24.764Z,96.00
2019-06-15T14:49:51.733Z,96.10
2019-06-15T14:52:18.695Z,96.10
2019-06-15T14:54:46.055Z,96.30
2019-06-15T14:57:33.005Z,96.40
2019-06-15T15:00:05.023Z,96.30
2019-06-15T15:02:38.175Z,96.30
2019-06-15T15:05:06.900Z,96.40
2019-06-15T15:07:36.591Z,96.30
2019-06-15T15:10:03.804Z,95.60
2019-06-15T15:12:30.792Z,95.90
2019-06-15T15:15:17.319Z,96.00
2019-06-15T15:17:46.036Z,96.00
2019-06-15T15:20:13.564Z,96.20
2019-06-15T15:22:41.147Z,96.30
2019-06-15T15:25:08.305Z,96.20
2019-06-15T15:27:37.383Z,95.70
2019-06-15T15:30:06.222Z,96.40
2019-06-15T15:32:52.924Z,95.40
2019-06-15T15:35:19.800Z,95.40
2019-06-15T15:37:46.808Z,95.50
2019-06-15T15:40:16.597Z,94.40
2019-06-15T15:42:43.268Z,95.00
2019-06-15T15:45:10.143Z,95.60
2019-06-15T15:47:37.462Z,94.70
2019-06-15T15:50:06.406Z,95.30
2019-06-15T15:52:33.958Z,95.40
2019-06-15T15:55:01.291Z,95.20
2019-06-15T15:57:29.435Z,95.50
2019-06-15T15:59:56.596Z,95.20
2019-06-15T16:02:51.946Z,95.20
2019-06-15T16:07:57.250Z,95.70
2019-06-15T16:10:26.649Z,94.90
2019-06-15T16:12:53.566Z,95.10
2019-06-15T16:15:20.470Z,95.70
2019-06-15T16:18:07.091Z,95.30
2019-06-15T16:20:36.759Z,95.90
2019-06-15T16:23:03.122Z,95.00
2019-06-15T16:25:49.620Z,95.40
2019-06-15T16:28:16.498Z,95.30
2019-06-15T16:31:01.963Z,95.80
2019-06-15T16:33:12.207Z,95.80
2019-06-15T16:35:39.082Z,95.90
2019-06-15T16:38:06.939Z,95.60
2019-06-15T16:40:55.997Z,95.30
2019-06-15T16:43:25.468Z,95.30
2019-06-15T16:45:52.127Z,95.80
2019-06-15T16:48:19.115Z,95.70
2019-06-15T16:50:46.969Z,95.50
2019-06-15T16:53:16.660Z,95.50
2019-06-15T16:55:43.484Z,95.60
2019-06-15T16:58:10.700Z,95.40
2019-06-15T17:00:37.617Z,95.80
2019-06-15T17:03:19.835Z,95.80
2019-06-15T17:05:36.062Z,95.80
2019-06-15T17:08:02.209Z,95.80
2019-06-15T17:10:36.872Z,95.90
2019-06-15T17:13:06.622Z,95.30
2019-06-15T17:15:33.349Z,95.80
2019-06-15T17:18:20.408Z,95.70
2019-06-15T17:20:49.087Z,95.90
2019-06-15T17:23:16.536Z,95.70
2019-06-15T17:25:43.607Z,95.80
2019-06-15T17:28:10.652Z,95.20
2019-06-15T17:30:37.706Z,95.50
2019-06-15T17:33:05.914Z,95.60
2019-06-15T17:35:36.132Z,95.60
2019-06-15T17:38:02.899Z,95.20
2019-06-15T17:40:29.815Z,95.20
2019-06-15T17:42:56.702Z,95.50
2019-06-15T17:45:23.596Z,95.20
2019-06-15T17:48:10.119Z,94.90
2019-06-15T17:50:38.467Z,95.60
2019-06-15T17:53:26.400Z,95.40
2019-06-15T17:55:55.968Z,95.60
2019-06-15T17:58:22.740Z,95.60
2019-06-15T18:00:50.114Z,95.50
2019-06-15T18:03:17.520Z,95.40
2019-06-15T18:05:47.415Z,95.40
2019-06-15T18:08:15.978Z,95.40
2019-06-15T18:10:43.126Z,95.20
2019-06-15T18:13:10.582Z,95.50
2019-06-15T18:15:37.937Z,95.20
2019-06-15T18:18:06.936Z,95.20
2019-06-15T18:20:33.620Z,95.50
2019-06-15T18:23:00.739Z,95.30
2019-06-15T18:25:28.220Z,95.20
2019-06-15T18:27:56.776Z,95.50
2019-06-15T18:30:26.260Z,94.90
2019-06-15T18:32:53.183Z,95.60
2019-06-15T18:35:23.142Z,95.70
2019-06-15T18:38:10.167Z,95.60
2019-06-15T18:40:37.302Z,95.50
2019-06-15T18:43:07.080Z,95.70
2019-06-15T18:45:36.011Z,95.00
2019-06-15T18:48:02.341Z,95.50
2019-06-15T18:50:33.946Z,95.30
2019-06-15T18:53:00.851Z,95.50
2019-06-15T18:55:27.752Z,95.50
2019-06-15T18:57:56.778Z,95.60
2019-06-15T19:00:26.114Z,95.20
2019-06-15T19:02:52.810Z,95.60
2019-06-15T19:05:20.272Z,95.70
2019-06-15T19:08:10.248Z,95.60
2019-06-15T19:13:22.727Z,95.70
2019-06-15T19:15:51.587Z,95.80
2019-06-15T19:18:19.415Z,96.10
2019-06-15T19:20:48.094Z,96.00
2019-06-15T19:23:17.824Z,95.90
2019-06-15T19:25:47.021Z,95.70
2019-06-15T19:28:16.548Z,96.00
2019-06-15T19:31:03.417Z,95.90
2019-06-15T19:33:31.809Z,95.80
2019-06-15T19:35:58.941Z,95.90
2019-06-15T19:38:27.120Z,96.00
2019-06-15T19:40:56.576Z,95.80
2019-06-15T19:43:24.075Z,95.70
2019-06-15T19:45:50.973Z,95.80
2019-06-15T19:48:19.091Z,95.70
2019-06-15T19:50:46.362Z,95.60
2019-06-15T19:53:13.362Z,95.60
2019-06-15T19:55:40.398Z,95.80
2019-06-15T19:58:07.525Z,95.90
2019-06-15T20:00:36.433Z,95.70
2019-06-15T20:03:06.879Z,95.90
2019-06-15T20:05:32.599Z,95.90
2019-06-15T20:07:59.506Z,95.80
2019-06-15T20:10:26.718Z,95.80
2019-06-15T20:12:56.108Z,95.80
2019-06-15T20:15:25.339Z,95.80
2019-06-15T20:17:51.945Z,95.80
2019-06-15T20:20:19.131Z,95.90
2019-06-15T20:22:46.765Z,96.00
2019-06-15T20:25:36.499Z,95.80
2019-06-15T20:28:22.914Z,95.90
2019-06-15T20:30:50.150Z,96.00
2019-06-15T20:33:17.036Z,96.00
2019-06-15T20:35:46.884Z,96.00
2019-06-15T20:38:15.926Z,96.10
2019-06-15T20:40:42.610Z,96.10
2019-06-15T20:43:09.928Z,96.20
2019-06-15T20:45:37.262Z,96.30
2019-06-15T20:48:06.622Z,96.20
2019-06-15T20:50:36.085Z,96.30
2019-06-15T20:53:02.514Z,96.30
2019-06-15T20:55:29.506Z,96.20
2019-06-15T20:57:56.936Z,96.40
2019-06-15T21:00:26.348Z,96.30
2019-06-15T21:02:52.919Z,96.40
2019-06-15T21:05:33.438Z,96.30
2019-06-15T21:07:50.089Z,96.30
2019-06-15T21:10:18.603Z,96.40
2019-06-15T21:12:47.003Z,96.40
2019-06-15T21:15:14.822Z,96.40
2019-06-15T21:18:01.552Z,96.40
2019-06-15T21:20:28.638Z,96.40
2019-06-15T21:22:57.210Z,96.40
2019-06-15T21:25:26.513Z,96.40
2019-06-15T21:28:16.681Z,96.50
2019-06-15T21:30:42.796Z,96.50
2019-06-15T21:33:09.672Z,96.40
2019-06-15T21:35:48.558Z,96.70
2019-06-15T21:38:06.462Z,96.40
2019-06-15T21:40:36.609Z,96.40
2019-06-15T21:43:02.577Z,96.40
2019-06-15T21:45:30.071Z,96.30
2019-06-15T21:47:57.480Z,96.40
2019-06-15T21:50:26.776Z,96.40
2019-06-15T21:52:53.746Z,96.20
2019-06-15T21:55:20.651Z,96.70
2019-06-15T21:57:51.322Z,96.60
2019-06-15T22:00:44.399Z,96.70
2019-06-15T22:03:11.774Z,96.80
2019-06-15T22:05:38.737Z,96.70
2019-06-15T22:08:06.424Z,96.60
2019-06-15T22:10:35.953Z,96.70
2019-06-15T22:13:02.777Z,96.80
2019-06-15T22:15:30.314Z,96.80
2019-06-15T22:17:57.765Z,97.00
2019-06-15T22:20:46.793Z,96.90
2019-06-15T22:23:13.139Z,97.00
2019-06-15T22:25:40.049Z,96.90
2019-06-15T22:28:07.019Z,97.00
2019-06-15T22:30:36.544Z,97.00
2019-06-15T22:33:02.719Z,97.00
2019-06-15T22:35:29.599Z,97.00
2019-06-15T22:37:56.543Z,97.00
2019-06-15T22:40:23.658Z,97.40
2019-06-15T22:42:52.111Z,97.20
2019-06-15T22:45:19.366Z,97.20
2019-06-15T22:48:06.836Z,97.20
2019-06-15T22:50:36.090Z,97.20
2019-06-15T22:53:04.681Z,97.30
2019-06-15T22:55:32.527Z,97.10
2019-06-15T22:57:59.934Z,97.40
2019-06-15T23:00:27.324Z,97.40
2019-06-15T23:02:56.530Z,97.50
2019-06-15T23:05:23.155Z,97.50
2019-06-15T23:07:50.048Z,97.30
2019-06-15T23:10:16.951Z,97.50
2019-06-15T23:12:46.217Z,97.50
2019-06-15T23:15:13.188Z,97.30
2019-06-15T23:17:40.162Z,97.30
2019-06-15T23:20:07.770Z,97.50
2019-06-15T23:22:34.720Z,97.40
2019-06-15T23:25:01.651Z,97.40
2019-06-15T23:27:48.555Z,97.40
2019-06-15T23:30:28.725Z,97.50
2019-06-15T23:35:46.695Z,97.50
2019-06-15T23:38:15.872Z,97.40
2019-06-15T23:40:42.648Z,97.40
2019-06-15T23:43:09.570Z,97.50
2019-06-15T23:45:36.457Z,97.60
2019-06-15T23:48:03.447Z,97.50
2019-06-15T23:50:30.367Z,97.60
2019-06-15T23:52:57.259Z,97.50
2019-06-15T23:55:26.603Z,98.00
2019-06-15T23:57:53.041Z,97.50
